createdAt,value
2018-12-06T00:00:13.793Z,10.50
2018-12-06T00:01:19.320Z,6.90
2018-12-06T00:02:24.859Z,8.00
2018-12-06T00:03:30.384Z,11.80
2018-12-06T00:04:35.916Z,8.80
2018-12-06T00:05:41.451Z,7.40
2018-12-06T00:06:46.981Z,9.80
2018-12-06T00:07:52.514Z,8.50
2018-12-06T00:08:58.046Z,7.50
2018-12-06T00:10:03.571Z,11.40
2018-12-06T00:11:09.104Z,13.70
2018-12-06T00:12:14.638Z,8.70
2018-12-06T00:13:20.166Z,8.90
2018-12-06T00:14:25.703Z,11.50
2018-12-06T00:15:31.232Z,8.70
2018-12-06T00:16:36.771Z,10.10
2018-12-06T00:17:42.300Z,15.80
2018-12-06T00:18:47.829Z,14.20
2018-12-06T00:19:53.359Z,7.20
2018-12-06T00:20:58.890Z,8.30
2018-12-06T00:22:04.421Z,8.10
2018-12-06T00:23:09.957Z,13.50
2018-12-06T00:24:15.492Z,7.40
2018-12-06T00:25:21.021Z,8.90
2018-12-06T00:26:26.546Z,10.20
2018-12-06T00:27:32.078Z,7.30
2018-12-06T00:28:37.612Z,11.80
2018-12-06T00:29:43.144Z,7.70
2018-12-06T00:30:48.673Z,6.20
2018-12-06T00:31:54.211Z,7.70
2018-12-06T00:32:59.742Z,11.50
2018-12-06T00:34:05.269Z,12.80
2018-12-06T00:35:10.799Z,6.50
2018-12-06T00:36:16.333Z,10.00
2018-12-06T00:37:21.865Z,7.90
2018-12-06T00:38:27.407Z,9.50
2018-12-06T00:39:32.928Z,8.50
2018-12-06T00:40:38.462Z,8.70
2018-12-06T00:41:43.991Z,8.90
2018-12-06T00:42:49.526Z,9.50
2018-12-06T00:43:55.059Z,8.60
2018-12-06T00:45:00.595Z,8.50
2018-12-06T00:46:06.119Z,9.10
2018-12-06T00:47:11.647Z,7.40
2018-12-06T00:48:17.178Z,10.00
2018-12-06T00:49:22.714Z,11.40
2018-12-06T00:50:28.250Z,11.10
2018-12-06T00:51:33.782Z,7.50
2018-12-06T00:52:39.310Z,8.40
2018-12-06T00:53:44.841Z,7.90
2018-12-06T00:54:50.371Z,12.30
2018-12-06T00:55:55.901Z,7.50
2018-12-06T00:57:01.439Z,10.10
2018-12-06T00:58:06.962Z,6.50
2018-12-06T00:59:12.496Z,11.70
2018-12-06T01:00:18.030Z,8.60
2018-12-06T01:01:23.559Z,10.10
2018-12-06T01:02:29.094Z,13.10
2018-12-06T01:03:34.622Z,14.60
2018-12-06T01:04:40.159Z,5.70
2018-12-06T01:05:45.689Z,7.50
2018-12-06T01:06:51.216Z,11.10
2018-12-06T01:07:56.753Z,7.80
2018-12-06T01:09:02.279Z,8.60
2018-12-06T01:10:07.815Z,9.90
2018-12-06T01:11:13.344Z,9.00
2018-12-06T01:12:18.875Z,14.80
2018-12-06T01:13:24.406Z,10.80
2018-12-06T01:14:29.936Z,8.10
2018-12-06T01:15:35.471Z,7.70
2018-12-06T01:16:41.000Z,8.00
2018-12-06T01:17:46.533Z,6.80
2018-12-06T01:18:52.065Z,10.10
2018-12-06T01:19:57.597Z,8.70
2018-12-06T01:21:03.127Z,7.90
2018-12-06T01:22:08.657Z,9.40
2018-12-06T01:23:14.189Z,11.50
2018-12-06T01:24:19.729Z,8.60
2018-12-06T01:25:25.252Z,7.30
2018-12-06T01:26:30.785Z,11.00
2018-12-06T01:27:36.321Z,7.50
2018-12-06T01:28:41.848Z,11.70
2018-12-06T01:29:47.384Z,5.50
2018-12-06T01:30:52.926Z,11.60
2018-12-06T01:31:58.443Z,9.30
2018-12-06T01:33:03.982Z,7.90
2018-12-06T01:34:09.512Z,12.30
2018-12-06T01:35:15.037Z,5.70
2018-12-06T01:36:20.572Z,5.30
2018-12-06T01:37:26.164Z,10.10
2018-12-06T01:38:31.634Z,7.20
2018-12-06T01:39:37.165Z,11.20
2018-12-06T01:40:42.694Z,9.80
2018-12-06T01:41:48.253Z,8.70
2018-12-06T01:42:53.758Z,11.10
2018-12-06T01:43:59.328Z,8.00
2018-12-06T01:45:04.825Z,10.90
2018-12-06T01:46:10.396Z,10.20
2018-12-06T01:47:15.885Z,9.90
2018-12-06T01:48:21.417Z,4.70
2018-12-06T01:49:26.983Z,11.50
2018-12-06T01:50:32.489Z,6.50
2018-12-06T01:51:38.033Z,12.20
2018-12-06T01:52:43.551Z,9.40
2018-12-06T01:53:49.079Z,7.30
2018-12-06T01:54:54.605Z,8.60
2018-12-06T01:56:00.186Z,8.50
2018-12-06T01:57:05.676Z,9.20
2018-12-06T01:58:11.202Z,7.80
2018-12-06T01:59:16.739Z,9.30
2018-12-06T02:00:22.280Z,6.10
2018-12-06T02:01:27.799Z,8.40
2018-12-06T02:02:33.327Z,11.90
2018-12-06T02:03:38.925Z,7.00
2018-12-06T02:04:44.399Z,8.20
2018-12-06T02:05:49.927Z,11.00
2018-12-06T02:06:55.458Z,7.80
2018-12-06T02:08:00.993Z,6.20
2018-12-06T02:09:06.523Z,7.20
2018-12-06T02:10:12.119Z,11.30
2018-12-06T02:11:17.582Z,5.90
2018-12-06T02:12:23.116Z,12.50
2018-12-06T02:13:28.640Z,9.50
2018-12-06T02:14:34.176Z,8.20
2018-12-06T02:15:39.705Z,8.20
2018-12-06T02:16:45.241Z,8.60
2018-12-06T02:17:50.776Z,6.30
2018-12-06T02:18:56.302Z,5.30
2018-12-06T02:20:01.840Z,8.10
2018-12-06T02:21:07.368Z,9.00
2018-12-06T02:22:12.899Z,13.80
2018-12-06T02:23:18.430Z,9.60
2018-12-06T02:24:23.964Z,8.60
2018-12-06T02:25:29.495Z,6.50
2018-12-06T02:26:35.022Z,5.90
2018-12-06T02:27:40.554Z,7.30
2018-12-06T02:28:46.090Z,10.60
2018-12-06T02:29:51.616Z,11.20
2018-12-06T02:30:57.149Z,8.60
2018-12-06T02:32:02.684Z,8.60
2018-12-06T02:33:08.218Z,8.40
2018-12-06T02:34:13.746Z,6.30
2018-12-06T02:35:19.275Z,7.50
2018-12-06T02:36:24.812Z,8.20
2018-12-06T02:37:30.346Z,7.20
2018-12-06T02:38:35.870Z,7.10
2018-12-06T02:39:41.401Z,9.40
2018-12-06T02:40:46.934Z,7.80
2018-12-06T02:41:52.464Z,9.00
2018-12-06T02:42:58.000Z,9.80
2018-12-06T02:44:03.540Z,12.50
2018-12-06T02:45:09.060Z,5.50
2018-12-06T02:46:14.596Z,9.70
2018-12-06T02:47:20.121Z,6.10
2018-12-06T02:48:25.657Z,7.80
2018-12-06T02:49:31.191Z,6.20
2018-12-06T02:50:36.714Z,9.80
2018-12-06T02:51:42.249Z,7.80
2018-12-06T02:52:47.779Z,8.90
2018-12-06T02:53:53.315Z,8.00
2018-12-06T02:54:58.846Z,10.60
2018-12-06T02:56:04.375Z,9.00
2018-12-06T02:57:09.915Z,10.30
2018-12-06T02:58:15.441Z,8.80
2018-12-06T02:59:20.968Z,7.40
2018-12-06T03:00:26.507Z,7.50
2018-12-06T03:01:32.031Z,11.60
2018-12-06T03:02:37.563Z,7.70
2018-12-06T03:03:43.095Z,10.30
2018-12-06T03:04:48.626Z,6.40
2018-12-06T03:05:54.159Z,9.30
2018-12-06T03:06:59.691Z,6.60
2018-12-06T03:08:05.230Z,13.10
2018-12-06T03:09:10.753Z,9.50
2018-12-06T03:10:16.285Z,13.40
2018-12-06T03:11:21.816Z,11.60
2018-12-06T03:12:27.349Z,9.70
2018-12-06T03:13:32.878Z,12.40
2018-12-06T03:14:38.410Z,7.20
2018-12-06T03:15:43.942Z,9.60
2018-12-06T03:16:49.477Z,10.10
2018-12-06T03:17:55.004Z,9.50
2018-12-06T03:19:00.538Z,8.60
2018-12-06T03:20:06.072Z,7.30
2018-12-06T03:21:11.605Z,10.30
2018-12-06T03:22:17.132Z,10.20
2018-12-06T03:23:22.672Z,10.00
2018-12-06T03:24:28.198Z,8.20
2018-12-06T03:25:33.728Z,8.60
2018-12-06T03:26:39.263Z,5.90
2018-12-06T03:27:44.792Z,8.70
2018-12-06T03:28:50.323Z,7.40
2018-12-06T03:29:55.859Z,12.80
2018-12-06T03:31:01.394Z,9.10
2018-12-06T03:32:06.919Z,7.80
2018-12-06T03:33:12.446Z,10.90
2018-12-06T03:34:17.981Z,9.60
2018-12-06T03:35:23.516Z,10.10
2018-12-06T03:36:29.047Z,7.10
2018-12-06T03:37:34.582Z,12.30
2018-12-06T03:38:40.109Z,8.30
2018-12-06T03:39:45.647Z,9.70
2018-12-06T03:40:51.176Z,8.50
2018-12-06T03:41:56.701Z,16.80
2018-12-06T03:43:02.239Z,7.20
2018-12-06T03:44:07.767Z,8.90
2018-12-06T03:45:13.295Z,8.30
2018-12-06T03:46:18.829Z,11.40
2018-12-06T03:47:24.363Z,10.00
2018-12-06T03:48:29.898Z,10.40
2018-12-06T03:49:35.423Z,8.70
2018-12-06T03:50:40.955Z,7.60
2018-12-06T03:51:46.487Z,8.10
2018-12-06T03:52:52.018Z,13.80
2018-12-06T03:53:57.548Z,12.40
2018-12-06T03:55:03.085Z,8.40
2018-12-06T03:56:08.619Z,9.10
2018-12-06T03:57:14.151Z,8.60
2018-12-06T03:58:19.675Z,12.00
2018-12-06T03:59:25.209Z,8.60
2018-12-06T04:00:30.744Z,8.60
2018-12-06T04:01:36.279Z,9.30
2018-12-06T04:02:41.805Z,8.60
2018-12-06T04:03:47.351Z,12.80
2018-12-06T04:04:52.872Z,7.30
2018-12-06T04:05:58.402Z,13.70
2018-12-06T04:07:03.940Z,12.60
2018-12-06T04:08:09.463Z,12.30
2018-12-06T04:09:14.997Z,12.60
2018-12-06T04:10:20.532Z,11.70
2018-12-06T04:11:26.063Z,6.50
2018-12-06T04:12:31.592Z,10.80
2018-12-06T04:13:37.124Z,10.00
2018-12-06T04:14:42.657Z,8.10
2018-12-06T04:15:48.193Z,10.40
2018-12-06T04:16:53.719Z,11.10
2018-12-06T04:17:59.256Z,10.60
2018-12-06T04:19:04.783Z,12.50
2018-12-06T04:20:10.315Z,14.10
2018-12-06T04:21:15.851Z,7.50
2018-12-06T04:22:21.378Z,10.70
2018-12-06T04:23:26.912Z,9.40
2018-12-06T04:24:32.449Z,10.10
2018-12-06T04:25:37.973Z,11.90
2018-12-06T04:26:43.507Z,11.80
2018-12-06T04:27:49.040Z,11.70
2018-12-06T04:28:54.570Z,12.50
2018-12-06T04:30:00.104Z,13.40
2018-12-06T04:31:05.636Z,9.80
2018-12-06T04:32:11.162Z,11.70
2018-12-06T04:33:16.699Z,15.70
2018-12-06T04:34:22.231Z,14.20
2018-12-06T04:35:27.762Z,10.30
2018-12-06T04:36:33.305Z,13.50
2018-12-06T04:37:38.836Z,11.90
2018-12-06T04:38:44.357Z,12.20
2018-12-06T04:39:49.892Z,16.60
2018-12-06T04:40:55.419Z,11.40
2018-12-06T04:42:00.951Z,11.60
2018-12-06T04:43:06.484Z,11.20
2018-12-06T04:44:12.016Z,11.90
2018-12-06T04:45:17.547Z,10.70
2018-12-06T04:46:23.079Z,15.00
2018-12-06T04:47:28.613Z,12.00
2018-12-06T04:48:34.142Z,12.80
2018-12-06T04:49:39.676Z,12.20
2018-12-06T04:50:45.205Z,13.30
2018-12-06T04:51:50.742Z,17.40
2018-12-06T04:52:56.329Z,12.00
2018-12-06T04:54:01.802Z,14.70
2018-12-06T04:55:07.340Z,13.30
2018-12-06T04:56:12.871Z,11.40
2018-12-06T04:57:18.399Z,11.20
2018-12-06T04:58:23.935Z,9.70
2018-12-06T04:59:29.460Z,9.30
2018-12-06T05:00:34.994Z,14.10
2018-12-06T05:01:40.527Z,9.80
2018-12-06T05:02:46.055Z,11.60
2018-12-06T05:03:51.588Z,9.70
2018-12-06T05:04:57.120Z,14.20
2018-12-06T05:06:02.654Z,9.80
2018-12-06T05:07:08.183Z,14.40
2018-12-06T05:08:13.717Z,13.10
2018-12-06T05:09:19.245Z,14.20
2018-12-06T05:10:24.778Z,9.60
2018-12-06T05:11:30.312Z,9.20
2018-12-06T05:12:35.846Z,9.90
2018-12-06T05:13:41.375Z,8.50
2018-12-06T05:14:46.907Z,11.70
2018-12-06T05:15:52.444Z,14.10
2018-12-06T05:16:57.968Z,9.30
2018-12-06T05:18:03.508Z,14.30
2018-12-06T05:19:09.035Z,9.30
2018-12-06T05:20:14.566Z,11.40
2018-12-06T05:21:20.106Z,10.60
2018-12-06T05:22:25.632Z,13.20
2018-12-06T05:23:31.161Z,23.70
2018-12-06T05:24:36.699Z,19.00
2018-12-06T05:25:42.225Z,12.20
2018-12-06T05:26:47.761Z,11.90
2018-12-06T05:27:53.294Z,15.40
2018-12-06T05:28:58.819Z,12.80
2018-12-06T05:30:04.351Z,14.70
2018-12-06T05:31:09.885Z,12.90
2018-12-06T05:32:15.419Z,10.20
2018-12-06T05:33:20.953Z,15.30
2018-12-06T05:34:26.479Z,14.40
2018-12-06T05:35:32.013Z,10.40
2018-12-06T05:36:37.545Z,8.80
2018-12-06T05:37:43.074Z,10.50
2018-12-06T05:38:48.607Z,9.60
2018-12-06T05:39:54.143Z,8.80
2018-12-06T05:40:59.668Z,11.70
2018-12-06T05:42:05.201Z,13.60
2018-12-06T05:43:10.734Z,13.10
2018-12-06T05:44:16.274Z,9.70
2018-12-06T05:45:21.800Z,11.80
2018-12-06T05:46:27.332Z,13.40
2018-12-06T05:47:32.861Z,11.90
2018-12-06T05:48:38.398Z,15.50
2018-12-06T05:49:43.930Z,16.70
2018-12-06T05:50:49.458Z,14.80
2018-12-06T05:51:54.994Z,11.80
2018-12-06T05:53:00.521Z,14.00
2018-12-06T05:54:06.053Z,14.20
2018-12-06T05:55:11.585Z,15.50
2018-12-06T05:56:17.116Z,21.70
2018-12-06T05:57:22.652Z,14.10
2018-12-06T05:58:28.182Z,14.00
2018-12-06T05:59:33.713Z,12.00
2018-12-06T06:00:39.243Z,14.00
2018-12-06T06:01:44.775Z,14.30
2018-12-06T06:02:50.307Z,16.90
2018-12-06T06:03:55.841Z,12.30
2018-12-06T06:05:01.371Z,14.40
2018-12-06T06:06:06.907Z,15.10
2018-12-06T06:07:12.439Z,18.70
2018-12-06T06:08:17.966Z,17.10
2018-12-06T06:09:23.496Z,13.30
2018-12-06T06:10:29.030Z,14.00
2018-12-06T06:11:34.561Z,15.60
2018-12-06T06:12:40.129Z,11.30
2018-12-06T06:13:45.628Z,12.90
2018-12-06T06:14:51.157Z,13.30
2018-12-06T06:15:56.689Z,12.30
2018-12-06T06:17:02.225Z,16.20
2018-12-06T06:18:07.756Z,14.20
2018-12-06T06:19:13.289Z,13.00
2018-12-06T06:20:18.820Z,12.80
2018-12-06T06:21:24.345Z,9.60
2018-12-06T06:22:29.877Z,11.30
2018-12-06T06:23:35.408Z,15.80
2018-12-06T06:24:40.941Z,14.30
2018-12-06T06:25:46.474Z,14.70
2018-12-06T06:26:52.011Z,13.20
2018-12-06T06:27:57.542Z,13.60
2018-12-06T06:29:03.088Z,13.90
2018-12-06T06:30:08.598Z,14.30
2018-12-06T06:31:14.137Z,12.40
2018-12-06T06:32:19.669Z,9.80
2018-12-06T06:33:25.193Z,10.20
2018-12-06T06:34:30.727Z,13.00
2018-12-06T06:35:36.265Z,12.10
2018-12-06T06:36:41.796Z,13.70
2018-12-06T06:37:47.324Z,11.90
2018-12-06T06:38:52.853Z,11.90
2018-12-06T06:39:58.387Z,14.40
2018-12-06T06:41:03.922Z,12.80
2018-12-06T06:42:09.452Z,10.10
2018-12-06T06:43:14.982Z,12.80
2018-12-06T06:44:20.513Z,15.00
2018-12-06T06:45:26.050Z,11.90
2018-12-06T06:46:31.585Z,17.30
2018-12-06T06:47:37.108Z,14.30
2018-12-06T06:48:42.640Z,13.50
2018-12-06T06:49:48.177Z,13.80
2018-12-06T06:50:53.714Z,11.90
2018-12-06T06:51:59.241Z,14.00
2018-12-06T06:53:04.774Z,15.20
2018-12-06T06:54:10.305Z,16.10
2018-12-06T06:55:15.833Z,17.30
2018-12-06T06:56:21.373Z,14.20
2018-12-06T06:57:26.902Z,17.00
2018-12-06T06:58:32.431Z,13.80
2018-12-06T06:59:37.964Z,13.60
2018-12-06T07:00:43.499Z,15.50
2018-12-06T07:01:49.026Z,13.70
2018-12-06T07:02:54.559Z,16.30
2018-12-06T07:04:00.101Z,16.20
2018-12-06T07:05:05.622Z,15.00
2018-12-06T07:06:11.153Z,14.10
2018-12-06T07:07:16.690Z,11.30
2018-12-06T07:08:22.222Z,11.60
2018-12-06T07:09:27.758Z,17.30
2018-12-06T07:10:33.285Z,13.00
2018-12-06T07:11:38.817Z,19.30
2018-12-06T07:12:44.358Z,13.80
2018-12-06T07:13:49.886Z,14.60
2018-12-06T07:14:55.410Z,15.50
2018-12-06T07:16:00.953Z,9.90
2018-12-06T07:17:06.481Z,10.20
2018-12-06T07:18:12.011Z,12.20
2018-12-06T07:19:17.551Z,17.50
2018-12-06T07:20:23.071Z,14.30
2018-12-06T07:21:28.605Z,14.30
2018-12-06T07:22:34.136Z,14.30
2018-12-06T07:23:39.675Z,14.80
2018-12-06T07:24:45.208Z,14.30
2018-12-06T07:25:50.749Z,14.80
2018-12-06T07:26:56.382Z,17.30
2018-12-06T07:28:01.807Z,17.40
2018-12-06T07:29:07.329Z,10.90
2018-12-06T07:30:12.866Z,19.80
2018-12-06T07:31:18.395Z,13.90
2018-12-06T07:32:23.930Z,16.70
2018-12-06T07:33:29.462Z,12.60
2018-12-06T07:34:35.070Z,15.10
2018-12-06T07:35:40.527Z,18.10
2018-12-06T07:36:46.057Z,10.90
2018-12-06T07:37:51.586Z,10.80
2018-12-06T07:38:57.121Z,16.00
2018-12-06T07:40:02.650Z,14.10
2018-12-06T07:41:08.184Z,13.60
2018-12-06T07:42:13.720Z,17.70
2018-12-06T07:43:19.248Z,15.00
2018-12-06T07:44:24.782Z,12.30
2018-12-06T07:45:30.314Z,11.50
2018-12-06T07:46:35.845Z,12.00
2018-12-06T07:47:41.379Z,15.30
2018-12-06T07:48:46.912Z,18.10
2018-12-06T07:49:52.441Z,16.00
2018-12-06T07:50:57.977Z,18.80
2018-12-06T07:52:03.510Z,14.70
2018-12-06T07:53:09.044Z,14.20
2018-12-06T07:54:14.572Z,14.40
2018-12-06T07:55:20.105Z,15.70
2018-12-06T07:56:25.645Z,12.20
2018-12-06T07:57:31.175Z,14.40
2018-12-06T07:58:36.710Z,18.10
2018-12-06T07:59:42.233Z,11.50
2018-12-06T08:00:47.767Z,14.60
2018-12-06T08:01:53.300Z,15.70
2018-12-06T08:02:58.838Z,15.50
2018-12-06T08:04:04.371Z,18.10
2018-12-06T08:05:09.895Z,18.60
2018-12-06T08:06:15.430Z,18.70
2018-12-06T08:07:20.960Z,14.40
2018-12-06T08:08:26.495Z,17.10
2018-12-06T08:09:32.032Z,17.40
2018-12-06T08:10:37.564Z,19.70
2018-12-06T08:11:43.092Z,15.10
2018-12-06T08:12:48.628Z,13.40
2018-12-06T08:13:54.155Z,19.00
2018-12-06T08:14:59.689Z,15.20
2018-12-06T08:16:05.226Z,17.20
2018-12-06T08:17:10.752Z,14.90
2018-12-06T08:18:16.291Z,13.30
2018-12-06T08:19:21.824Z,13.00
2018-12-06T08:20:27.351Z,15.30
2018-12-06T08:21:32.880Z,16.80
2018-12-06T08:22:38.416Z,14.50
2018-12-06T08:23:43.949Z,13.80
2018-12-06T08:24:49.480Z,13.00
2018-12-06T08:25:55.011Z,21.50
2018-12-06T08:27:00.548Z,15.00
2018-12-06T08:28:06.081Z,12.40
2018-12-06T08:29:11.609Z,15.50
2018-12-06T08:30:17.146Z,13.80
2018-12-06T08:31:22.675Z,13.20
2018-12-06T08:32:28.208Z,15.90
2018-12-06T08:33:33.743Z,16.30
2018-12-06T08:34:39.274Z,12.60
2018-12-06T08:35:44.807Z,16.50
2018-12-06T08:36:50.337Z,12.80
2018-12-06T08:37:55.877Z,18.00
2018-12-06T08:39:01.402Z,16.40
2018-12-06T08:40:06.936Z,15.10
2018-12-06T08:41:12.468Z,14.80
2018-12-06T08:42:18.007Z,14.90
2018-12-06T08:43:23.530Z,15.00
2018-12-06T08:44:29.073Z,15.60
2018-12-06T08:45:34.604Z,14.20
2018-12-06T08:46:40.129Z,12.50
2018-12-06T08:47:45.661Z,15.00
2018-12-06T08:48:51.196Z,13.70
2018-12-06T08:49:56.733Z,13.40
2018-12-06T08:51:02.264Z,17.00
2018-12-06T08:52:07.793Z,14.20
2018-12-06T08:53:13.329Z,20.90
2018-12-06T08:54:18.859Z,15.20
2018-12-06T08:55:24.390Z,13.80
2018-12-06T08:56:29.925Z,15.90
2018-12-06T08:57:35.457Z,11.00
2018-12-06T08:58:40.990Z,18.00
2018-12-06T08:59:46.526Z,19.60
2018-12-06T09:00:52.057Z,20.90
2018-12-06T09:01:57.587Z,20.60
2018-12-06T09:03:03.121Z,18.10
2018-12-06T09:04:08.651Z,12.30
2018-12-06T09:05:14.190Z,17.30
2018-12-06T09:06:19.720Z,16.30
2018-12-06T09:07:25.255Z,21.60
2018-12-06T09:08:30.781Z,18.00
2018-12-06T09:09:36.317Z,16.90
2018-12-06T09:10:41.848Z,14.70
2018-12-06T09:11:47.391Z,18.30
2018-12-06T09:12:52.913Z,19.90
2018-12-06T09:13:58.454Z,19.30
2018-12-06T09:15:03.977Z,17.70
2018-12-06T09:16:09.516Z,20.80
2018-12-06T09:17:15.043Z,19.20
2018-12-06T09:18:20.583Z,18.60
2018-12-06T09:19:26.112Z,20.40
2018-12-06T09:20:31.643Z,16.70
2018-12-06T09:21:37.175Z,15.90
2018-12-06T09:22:42.711Z,20.30
2018-12-06T09:23:48.245Z,18.50
2018-12-06T09:24:53.779Z,15.10
2018-12-06T09:25:59.314Z,17.90
2018-12-06T09:27:04.845Z,20.10
2018-12-06T09:28:10.375Z,16.10
2018-12-06T09:29:15.908Z,21.10
2018-12-06T09:30:21.435Z,15.30
2018-12-06T09:31:26.979Z,19.60
2018-12-06T09:32:32.509Z,17.00
2018-12-06T09:33:38.033Z,20.10
2018-12-06T09:34:43.569Z,18.70
2018-12-06T09:35:49.113Z,19.00
2018-12-06T09:36:54.634Z,20.70
2018-12-06T09:38:00.170Z,18.50
2018-12-06T09:39:05.706Z,20.20
2018-12-06T09:40:11.239Z,22.50
2018-12-06T09:41:16.767Z,19.80
2018-12-06T09:42:22.309Z,20.50
2018-12-06T09:43:27.842Z,22.80
2018-12-06T09:44:33.365Z,22.40
2018-12-06T09:45:38.905Z,25.80
2018-12-06T09:46:44.434Z,21.60
2018-12-06T09:47:49.975Z,24.00
2018-12-06T09:48:55.498Z,27.30
2018-12-06T09:50:01.033Z,20.60
2018-12-06T09:51:06.575Z,23.50
2018-12-06T09:52:12.107Z,26.80
2018-12-06T09:53:17.631Z,21.20
2018-12-06T09:54:23.162Z,16.00
2018-12-06T09:55:28.695Z,21.70
2018-12-06T09:56:34.231Z,20.90
2018-12-06T09:57:39.765Z,20.10
2018-12-06T09:58:45.297Z,20.00
2018-12-06T09:59:50.830Z,21.70
2018-12-06T10:00:56.361Z,23.80
2018-12-06T10:02:01.894Z,22.90
2018-12-06T10:03:07.427Z,17.80
2018-12-06T10:04:12.959Z,22.70
2018-12-06T10:05:18.749Z,22.10
2018-12-06T10:06:24.037Z,21.60
2018-12-06T10:07:29.564Z,20.60
2018-12-06T10:08:35.090Z,21.40
2018-12-06T10:09:40.629Z,16.10
2018-12-06T10:10:46.164Z,19.90
2018-12-06T10:11:51.693Z,22.20
2018-12-06T10:12:57.228Z,21.40
2018-12-06T10:14:02.759Z,20.50
2018-12-06T10:15:08.294Z,20.10
2018-12-06T10:16:13.825Z,19.00
2018-12-06T10:17:19.357Z,21.90
2018-12-06T10:18:24.891Z,24.20
2018-12-06T10:19:30.427Z,25.40
2018-12-06T10:20:35.967Z,19.00
2018-12-06T10:21:41.493Z,25.20
2018-12-06T10:22:47.030Z,23.00
2018-12-06T10:23:52.558Z,23.50
2018-12-06T10:24:58.094Z,26.20
2018-12-06T10:26:03.622Z,24.70
2018-12-06T10:27:09.163Z,21.30
2018-12-06T10:28:14.695Z,18.40
2018-12-06T10:29:20.224Z,21.90
2018-12-06T10:30:25.764Z,23.30
2018-12-06T10:31:31.290Z,20.40
2018-12-06T10:32:36.828Z,21.80
2018-12-06T10:33:42.357Z,26.40
2018-12-06T10:34:53.476Z,27.30
2018-12-06T10:35:53.424Z,20.70
2018-12-06T10:36:58.958Z,20.50
2018-12-06T10:38:04.493Z,28.80
2018-12-06T10:39:10.024Z,19.40
2018-12-06T10:40:15.566Z,25.00
2018-12-06T10:41:21.097Z,27.30
2018-12-06T10:42:26.624Z,29.30
2018-12-06T10:43:32.161Z,30.20
2018-12-06T10:44:37.772Z,28.90
2018-12-06T10:45:43.231Z,23.10
2018-12-06T10:46:48.760Z,22.50
2018-12-06T10:47:54.296Z,23.10
2018-12-06T10:48:59.826Z,24.20
2018-12-06T10:50:05.358Z,27.50
2018-12-06T10:51:10.889Z,25.10
2018-12-06T10:52:16.434Z,22.40
2018-12-06T10:53:21.958Z,24.40
2018-12-06T10:54:27.493Z,26.10
2018-12-06T10:55:33.033Z,24.20
2018-12-06T10:58:10.154Z,23.40
2018-12-06T10:59:15.668Z,22.80
2018-12-06T11:01:14.110Z,20.30
2018-12-06T11:02:19.601Z,22.60
2018-12-06T11:03:25.135Z,20.00
2018-12-06T11:04:30.667Z,25.40
2018-12-06T11:05:36.201Z,19.30
2018-12-06T11:06:41.733Z,21.00
2018-12-06T11:07:47.270Z,21.90
2018-12-06T11:08:52.799Z,24.40
2018-12-06T11:09:58.330Z,25.10
2018-12-06T11:11:03.866Z,22.50
2018-12-06T11:12:09.400Z,22.60
2018-12-06T11:13:14.933Z,22.40
2018-12-06T11:14:20.465Z,21.10
2018-12-06T11:15:26.001Z,19.10
2018-12-06T11:16:31.539Z,22.80
2018-12-06T11:17:37.073Z,21.60
2018-12-06T11:18:42.609Z,27.30
2018-12-06T11:19:48.133Z,22.40
2018-12-06T11:20:53.669Z,21.60
2018-12-06T11:21:59.212Z,24.10
2018-12-06T11:23:04.733Z,22.50
2018-12-06T11:24:10.268Z,28.80
2018-12-06T11:25:15.811Z,27.10
2018-12-06T11:26:21.346Z,29.40
2018-12-06T11:27:26.873Z,27.80
2018-12-06T11:28:32.404Z,21.40
2018-12-06T11:29:37.939Z,26.90
2018-12-06T11:30:43.492Z,27.00
2018-12-06T11:31:49.006Z,25.80
2018-12-06T11:32:54.543Z,24.80
2018-12-06T11:34:00.072Z,27.60
2018-12-06T11:35:05.610Z,26.50
2018-12-06T11:36:11.136Z,31.80
2018-12-06T11:37:16.689Z,29.10
2018-12-06T11:38:22.213Z,26.60
2018-12-06T11:39:27.735Z,28.20
2018-12-06T11:40:33.277Z,34.00
2018-12-06T11:41:43.042Z,32.80
2018-12-06T11:42:44.342Z,22.60
2018-12-06T11:43:49.873Z,31.40
2018-12-06T11:44:55.408Z,25.50
2018-12-06T11:46:00.941Z,28.40
2018-12-06T11:47:06.481Z,24.70
2018-12-06T11:48:12.007Z,28.20
2018-12-06T11:49:17.552Z,31.10
2018-12-06T11:50:23.075Z,24.20
2018-12-06T11:51:28.619Z,30.40
2018-12-06T11:52:34.141Z,37.40
2018-12-06T11:53:39.687Z,25.40
2018-12-06T11:54:45.219Z,23.80
2018-12-06T11:55:50.746Z,26.00
2018-12-06T11:56:56.280Z,30.70
2018-12-06T11:58:01.814Z,31.70
2018-12-06T11:59:07.353Z,31.60
2018-12-06T12:00:12.882Z,28.40
2018-12-06T12:01:18.415Z,25.10
2018-12-06T12:02:23.950Z,34.90
2018-12-06T12:03:29.484Z,29.20
2018-12-06T12:04:35.016Z,29.70
2018-12-06T12:05:40.556Z,26.80
2018-12-06T12:06:46.084Z,30.60
2018-12-06T12:07:51.617Z,29.50
2018-12-06T12:08:57.161Z,30.00
2018-12-06T12:10:02.691Z,31.90
2018-12-06T12:11:08.220Z,29.80
2018-12-06T12:12:13.754Z,30.20
2018-12-06T12:13:19.289Z,38.40
2018-12-06T12:14:24.830Z,28.10
2018-12-06T12:15:30.357Z,37.20
2018-12-06T12:16:35.896Z,31.00
2018-12-06T12:17:41.426Z,24.00
2018-12-06T12:18:46.960Z,25.10
2018-12-06T12:19:52.492Z,33.80
2018-12-06T12:20:58.028Z,30.70
2018-12-06T12:22:03.566Z,35.90
2018-12-06T12:23:09.095Z,32.50
2018-12-06T12:24:14.630Z,33.60
2018-12-06T12:25:20.163Z,33.10
2018-12-06T12:26:25.700Z,28.20
2018-12-06T12:27:31.233Z,29.20
2018-12-06T12:28:36.765Z,28.00
2018-12-06T12:29:42.301Z,33.30
2018-12-06T12:30:47.838Z,28.80
2018-12-06T12:31:53.374Z,35.00
2018-12-06T12:32:58.906Z,42.40
2018-12-06T12:34:04.438Z,38.90
2018-12-06T12:35:09.969Z,42.50
2018-12-06T12:36:15.508Z,37.00
2018-12-06T12:37:21.041Z,44.00
2018-12-06T12:38:26.577Z,42.80
2018-12-06T12:39:32.194Z,36.60
2018-12-06T12:40:37.646Z,38.50
2018-12-06T12:41:43.216Z,38.10
2018-12-06T12:42:48.718Z,36.40
2018-12-06T12:43:54.244Z,38.20
2018-12-06T12:44:59.778Z,40.50
2018-12-06T12:46:05.313Z,30.80
2018-12-06T12:47:10.851Z,30.40
2018-12-06T12:48:16.389Z,37.60
2018-12-06T12:49:21.915Z,27.30
2018-12-06T12:50:27.448Z,40.10
2018-12-06T12:51:32.987Z,37.60
2018-12-06T12:52:38.516Z,39.20
2018-12-06T12:53:44.053Z,36.20
2018-12-06T12:54:49.588Z,32.50
2018-12-06T12:55:55.121Z,32.40
2018-12-06T12:57:00.655Z,31.10
2018-12-06T12:58:06.196Z,25.50
2018-12-06T12:59:11.720Z,29.30
2018-12-06T13:00:17.257Z,32.40
2018-12-06T13:01:22.793Z,30.50
2018-12-06T13:02:28.333Z,33.30
2018-12-06T13:03:33.866Z,32.20
2018-12-06T13:04:39.400Z,28.30
2018-12-06T13:05:44.936Z,26.30
2018-12-06T13:06:50.467Z,24.90
2018-12-06T13:07:56.010Z,28.00
2018-12-06T13:09:01.536Z,26.60
2018-12-06T13:10:07.070Z,30.30
2018-12-06T13:11:12.603Z,25.30
2018-12-06T13:12:18.136Z,30.70
2018-12-06T13:13:23.672Z,29.00
2018-12-06T13:14:29.207Z,29.20
2018-12-06T13:15:34.741Z,26.10
2018-12-06T13:16:40.275Z,23.50
2018-12-06T13:17:45.815Z,29.20
2018-12-06T13:18:51.349Z,25.40
2018-12-06T13:19:56.881Z,26.50
2018-12-06T13:21:02.413Z,25.20
2018-12-06T13:22:07.951Z,29.10
2018-12-06T13:23:13.486Z,25.30
2018-12-06T13:24:19.017Z,24.60
2018-12-06T13:25:24.557Z,23.80
2018-12-06T13:26:30.085Z,27.90
2018-12-06T13:27:35.621Z,22.60
2018-12-06T13:28:41.162Z,27.70
2018-12-06T13:29:46.686Z,21.20
2018-12-06T13:30:52.219Z,23.50
2018-12-06T13:31:57.757Z,27.10
2018-12-06T13:33:03.291Z,24.50
2018-12-06T13:34:08.822Z,22.70
2018-12-06T13:35:14.360Z,18.60
2018-12-06T13:36:19.893Z,23.20
2018-12-06T13:37:25.431Z,21.10
2018-12-06T13:38:30.967Z,20.70
2018-12-06T13:39:36.495Z,21.80
2018-12-06T13:40:42.032Z,22.30
2018-12-06T13:41:47.573Z,21.50
2018-12-06T13:42:53.106Z,22.10
2018-12-06T13:43:58.635Z,22.80
2018-12-06T13:45:04.169Z,18.40
2018-12-06T13:46:09.733Z,23.00
2018-12-06T13:47:15.239Z,22.60
2018-12-06T13:48:20.781Z,21.70
2018-12-06T13:49:26.308Z,24.00
2018-12-06T13:50:31.842Z,23.50
2018-12-06T13:51:37.382Z,22.00
2018-12-06T13:52:42.913Z,18.40
2018-12-06T13:53:48.443Z,20.80
2018-12-06T13:54:53.981Z,20.30
2018-12-06T13:55:59.521Z,22.60
2018-12-06T13:57:05.048Z,19.50
2018-12-06T13:58:10.607Z,25.90
2018-12-06T13:59:16.123Z,22.10
2018-12-06T14:00:21.674Z,21.90
2018-12-06T14:01:27.357Z,23.70
2018-12-06T14:02:32.723Z,24.50
2018-12-06T14:03:38.258Z,21.10
2018-12-06T14:04:43.831Z,23.30
2018-12-06T14:05:49.324Z,22.10
2018-12-06T14:06:54.866Z,26.00
2018-12-06T14:08:00.394Z,24.30
2018-12-06T14:09:05.934Z,25.70
2018-12-06T14:10:11.466Z,23.90
2018-12-06T14:11:16.998Z,20.10
2018-12-06T14:12:22.533Z,25.00